Elbow Lake, Minnesota
Current Conditions -  °F | °C
As of 11:56 AM on Thursday 30 Oct 2014 (Local Time) from KY63 Reporting Station
Drizzle Drizzle  
Wind Chill:   Ceiling: 800
Heat Index:   Visibility: 10mi
Dew Point:   Wind: 8mph
Humidity: 93%   Direction: 360°N
Pressure: 30.16"   Gusts: NA
Location:  45.99°N, 95.98°W
Report Text: KY63 301656Z AUTO 36007KT 10SM -DZ OVC008 05/04 A3016 RMK AO2 T00450035
Loading
Personal Weather Stations






























Interactive Weather Map
Tropical Storm Tracking
New forecast layout! Learn more

10-Day Weather Forecast

Advertisements
Track Severe Weather on mobile